sensor_id;sensor_type;location;lat;lon;timestamp;P1;durP1;ratioP1;P2;durP2;ratioP2
23266;SDS011;11802;53.160;8.214;2022-07-29T00:01:47;5.27;;;2.33;;
23266;SDS011;11802;53.160;8.214;2022-07-29T00:04:14;4.93;;;2.40;;
23266;SDS011;11802;53.160;8.214;2022-07-29T00:06:40;4.03;;;2.13;;
23266;SDS011;11802;53.160;8.214;2022-07-29T00:09:05;7.00;;;2.07;;
23266;SDS011;11802;53.160;8.214;2022-07-29T00:11:31;6.23;;;2.40;;
23266;SDS011;11802;53.160;8.214;2022-07-29T00:13:57;6.83;;;2.50;;
23266;SDS011;11802;53.160;8.214;2022-07-29T00:16:23;6.37;;;2.10;;
23266;SDS011;11802;53.160;8.214;2022-07-29T00:18:48;4.93;;;2.70;;
23266;SDS011;11802;53.160;8.214;2022-07-29T00:21:14;4.30;;;2.60;;
23266;SDS011;11802;53.160;8.214;2022-07-29T00:23:39;4.13;;;2.60;;
23266;SDS011;11802;53.160;8.214;2022-07-29T00:26:05;5.33;;;2.30;;
23266;SDS011;11802;53.160;8.214;2022-07-29T00:28:31;4.33;;;2.50;;
23266;SDS011;11802;53.160;8.214;2022-07-29T00:30:56;6.97;;;2.50;;
23266;SDS011;11802;53.160;8.214;2022-07-29T00:33:22;4.37;;;2.33;;
23266;SDS011;11802;53.160;8.214;2022-07-29T00:35:48;4.60;;;2.30;;
23266;SDS011;11802;53.160;8.214;2022-07-29T00:38:14;4.67;;;2.53;;
23266;SDS011;11802;53.160;8.214;2022-07-29T00:40:42;6.07;;;2.47;;
23266;SDS011;11802;53.160;8.214;2022-07-29T00:43:08;4.57;;;2.10;;
23266;SDS011;11802;53.160;8.214;2022-07-29T00:45:34;5.23;;;2.50;;
23266;SDS011;11802;53.160;8.214;2022-07-29T00:48:00;7.00;;;2.50;;
23266;SDS011;11802;53.160;8.214;2022-07-29T00:50:26;5.53;;;2.47;;
23266;SDS011;11802;53.160;8.214;2022-07-29T00:52:51;4.10;;;2.50;;
23266;SDS011;11802;53.160;8.214;2022-07-29T00:55:17;6.17;;;2.77;;
23266;SDS011;11802;53.160;8.214;2022-07-29T00:57:43;3.50;;;2.00;;
23266;SDS011;11802;53.160;8.214;2022-07-29T01:00:11;3.63;;;2.40;;
23266;SDS011;11802;53.160;8.214;2022-07-29T01:02:40;6.00;;;2.57;;
23266;SDS011;11802;53.160;8.214;2022-07-29T01:05:06;5.27;;;2.60;;
23266;SDS011;11802;53.160;8.214;2022-07-29T01:07:33;5.57;;;2.50;;
23266;SDS011;11802;53.160;8.214;2022-07-29T01:10:01;6.07;;;2.50;;
23266;SDS011;11802;53.160;8.214;2022-07-29T01:12:34;4.53;;;2.60;;
23266;SDS011;11802;53.160;8.214;2022-07-29T01:15:07;4.97;;;2.60;;
23266;SDS011;11802;53.160;8.214;2022-07-29T01:17:36;6.10;;;2.33;;
23266;SDS011;11802;53.160;8.214;2022-07-29T01:25:20;7.87;;;2.57;;
23266;SDS011;11802;53.160;8.214;2022-07-29T01:28:19;5.50;;;2.70;;
23266;SDS011;11802;53.160;8.214;2022-07-29T01:31:06;5.87;;;2.47;;
23266;SDS011;11802;53.160;8.214;2022-07-29T01:33:36;3.90;;;2.30;;
23266;SDS011;11802;53.160;8.214;2022-07-29T01:36:18;4.97;;;2.30;;
23266;SDS011;11802;53.160;8.214;2022-07-29T01:38:58;6.93;;;2.67;;
23266;SDS011;11802;53.160;8.214;2022-07-29T01:41:35;4.67;;;2.60;;
23266;SDS011;11802;53.160;8.214;2022-07-29T01:44:18;6.10;;;2.93;;
23266;SDS011;11802;53.160;8.214;2022-07-29T01:46:56;6.20;;;2.50;;
23266;SDS011;11802;53.160;8.214;2022-07-29T01:49:28;5.40;;;2.63;;
23266;SDS011;11802;53.160;8.214;2022-07-29T01:51:59;4.50;;;2.60;;
23266;SDS011;11802;53.160;8.214;2022-07-29T01:54:32;4.87;;;2.50;;
23266;SDS011;11802;53.160;8.214;2022-07-29T01:57:05;4.57;;;2.43;;
23266;SDS011;11802;53.160;8.214;2022-07-29T01:59:34;4.07;;;2.43;;
23266;SDS011;11802;53.160;8.214;2022-07-29T02:02:01;5.13;;;2.43;;
23266;SDS011;11802;53.160;8.214;2022-07-29T02:04:27;6.07;;;3.00;;
23266;SDS011;11802;53.160;8.214;2022-07-29T02:06:54;4.00;;;2.37;;
23266;SDS011;11802;53.160;8.214;2022-07-29T02:09:23;4.07;;;2.40;;
23266;SDS011;11802;53.160;8.214;2022-07-29T02:11:51;5.47;;;2.30;;
23266;SDS011;11802;53.160;8.214;2022-07-29T02:14:20;4.30;;;2.53;;
23266;SDS011;11802;53.160;8.214;2022-07-29T02:16:48;7.60;;;2.40;;
23266;SDS011;11802;53.160;8.214;2022-07-29T02:19:18;6.13;;;2.53;;
23266;SDS011;11802;53.160;8.214;2022-07-29T02:21:46;6.00;;;2.40;;
23266;SDS011;11802;53.160;8.214;2022-07-29T02:24:12;4.37;;;2.20;;
23266;SDS011;11802;53.160;8.214;2022-07-29T02:26:39;5.90;;;2.33;;
23266;SDS011;11802;53.160;8.214;2022-07-29T02:29:06;5.27;;;2.53;;
23266;SDS011;11802;53.160;8.214;2022-07-29T02:31:34;3.90;;;2.43;;
23266;SDS011;11802;53.160;8.214;2022-07-29T02:34:05;4.30;;;2.20;;
23266;SDS011;11802;53.160;8.214;2022-07-29T02:36:33;4.03;;;2.00;;
23266;SDS011;11802;53.160;8.214;2022-07-29T02:38:59;5.37;;;2.93;;
23266;SDS011;11802;53.160;8.214;2022-07-29T02:41:28;4.53;;;2.47;;
23266;SDS011;11802;53.160;8.214;2022-07-29T02:43:56;4.33;;;2.50;;
23266;SDS011;11802;53.160;8.214;2022-07-29T02:46:30;3.37;;;2.30;;
23266;SDS011;11802;53.160;8.214;2022-07-29T02:49:09;3.93;;;2.17;;
23266;SDS011;11802;53.160;8.214;2022-07-29T02:51:45;5.93;;;2.20;;
23266;SDS011;11802;53.160;8.214;2022-07-29T02:54:17;5.20;;;2.10;;
23266;SDS011;11802;53.160;8.214;2022-07-29T02:56:50;4.13;;;1.97;;
23266;SDS011;11802;53.160;8.214;2022-07-29T02:59:21;5.13;;;2.20;;
23266;SDS011;11802;53.160;8.214;2022-07-29T03:01:51;5.60;;;2.70;;
23266;SDS011;11802;53.160;8.214;2022-07-29T03:04:19;4.80;;;2.40;;
23266;SDS011;11802;53.160;8.214;2022-07-29T03:06:46;7.47;;;2.33;;
23266;SDS011;11802;53.160;8.214;2022-07-29T03:09:13;4.93;;;2.13;;
23266;SDS011;11802;53.160;8.214;2022-07-29T03:11:39;5.10;;;2.40;;
23266;SDS011;11802;53.160;8.214;2022-07-29T03:14:06;4.70;;;2.40;;
23266;SDS011;11802;53.160;8.214;2022-07-29T03:16:33;6.10;;;2.60;;
23266;SDS011;11802;53.160;8.214;2022-07-29T03:19:01;6.80;;;2.40;;
23266;SDS011;11802;53.160;8.214;2022-07-29T03:21:28;5.43;;;2.40;;
23266;SDS011;11802;53.160;8.214;2022-07-29T03:23:53;4.37;;;2.60;;
23266;SDS011;11802;53.160;8.214;2022-07-29T03:26:19;4.13;;;2.17;;
23266;SDS011;11802;53.160;8.214;2022-07-29T03:28:45;5.43;;;2.30;;
23266;SDS011;11802;53.160;8.214;2022-07-29T03:31:10;6.33;;;2.70;;
23266;SDS011;11802;53.160;8.214;2022-07-29T03:33:35;4.90;;;2.40;;
23266;SDS011;11802;53.160;8.214;2022-07-29T03:36:01;6.67;;;2.97;;
23266;SDS011;11802;53.160;8.214;2022-07-29T03:38:27;6.20;;;2.70;;
23266;SDS011;11802;53.160;8.214;2022-07-29T03:40:56;6.50;;;2.57;;
23266;SDS011;11802;53.160;8.214;2022-07-29T03:43:26;3.47;;;2.03;;
23266;SDS011;11802;53.160;8.214;2022-07-29T03:45:56;3.30;;;2.13;;
23266;SDS011;11802;53.160;8.214;2022-07-29T03:48:25;6.03;;;2.10;;
23266;SDS011;11802;53.160;8.214;2022-07-29T03:50:54;7.57;;;2.40;;
23266;SDS011;11802;53.160;8.214;2022-07-29T03:53:20;5.40;;;2.40;;
23266;SDS011;11802;53.160;8.214;2022-07-29T03:55:50;7.10;;;2.50;;
23266;SDS011;11802;53.160;8.214;2022-07-29T03:58:19;5.83;;;2.60;;
23266;SDS011;11802;53.160;8.214;2022-07-29T04:00:45;4.57;;;1.90;;
23266;SDS011;11802;53.160;8.214;2022-07-29T04:03:11;3.90;;;2.30;;
23266;SDS011;11802;53.160;8.214;2022-07-29T04:05:38;4.47;;;1.93;;
23266;SDS011;11802;53.160;8.214;2022-07-29T04:08:03;7.70;;;2.50;;
23266;SDS011;11802;53.160;8.214;2022-07-29T04:10:29;5.73;;;2.17;;
23266;SDS011;11802;53.160;8.214;2022-07-29T04:12:55;5.37;;;2.80;;
23266;SDS011;11802;53.160;8.214;2022-07-29T04:15:20;5.27;;;2.43;;
23266;SDS011;11802;53.160;8.214;2022-07-29T04:17:46;3.70;;;2.03;;
23266;SDS011;11802;53.160;8.214;2022-07-29T04:20:11;7.93;;;2.53;;
23266;SDS011;11802;53.160;8.214;2022-07-29T04:22:38;5.87;;;2.47;;
23266;SDS011;11802;53.160;8.214;2022-07-29T04:25:04;5.03;;;2.20;;
23266;SDS011;11802;53.160;8.214;2022-07-29T04:27:30;4.53;;;2.00;;
23266;SDS011;11802;53.160;8.214;2022-07-29T04:29:56;6.80;;;2.33;;
23266;SDS011;11802;53.160;8.214;2022-07-29T04:32:21;4.80;;;2.10;;
23266;SDS011;11802;53.160;8.214;2022-07-29T04:34:47;3.57;;;2.00;;
23266;SDS011;11802;53.160;8.214;2022-07-29T04:37:12;7.07;;;3.10;;
23266;SDS011;11802;53.160;8.214;2022-07-29T04:39:38;5.70;;;2.20;;
23266;SDS011;11802;53.160;8.214;2022-07-29T04:42:04;5.73;;;2.10;;
23266;SDS011;11802;53.160;8.214;2022-07-29T04:44:29;4.67;;;1.90;;
23266;SDS011;11802;53.160;8.214;2022-07-29T04:46:55;5.23;;;2.40;;
23266;SDS011;11802;53.160;8.214;2022-07-29T04:49:21;3.87;;;2.23;;
23266;SDS011;11802;53.160;8.214;2022-07-29T04:51:47;5.70;;;2.50;;
23266;SDS011;11802;53.160;8.214;2022-07-29T04:54:12;6.57;;;2.20;;
23266;SDS011;11802;53.160;8.214;2022-07-29T04:56:38;4.27;;;1.97;;
23266;SDS011;11802;53.160;8.214;2022-07-29T04:59:03;3.67;;;2.33;;
23266;SDS011;11802;53.160;8.214;2022-07-29T05:01:29;5.10;;;2.27;;
23266;SDS011;11802;53.160;8.214;2022-07-29T05:03:54;6.17;;;2.30;;
23266;SDS011;11802;53.160;8.214;2022-07-29T05:06:20;4.93;;;1.90;;
23266;SDS011;11802;53.160;8.214;2022-07-29T05:08:45;6.90;;;2.30;;
23266;SDS011;11802;53.160;8.214;2022-07-29T05:11:11;5.10;;;2.60;;
23266;SDS011;11802;53.160;8.214;2022-07-29T05:13:36;6.63;;;2.50;;
23266;SDS011;11802;53.160;8.214;2022-07-29T05:16:02;5.27;;;2.30;;
23266;SDS011;11802;53.160;8.214;2022-07-29T05:18:27;4.63;;;2.27;;
23266;SDS011;11802;53.160;8.214;2022-07-29T05:20:53;6.13;;;2.27;;
23266;SDS011;11802;53.160;8.214;2022-07-29T05:23:19;4.30;;;2.40;;
23266;SDS011;11802;53.160;8.214;2022-07-29T05:25:44;4.77;;;2.30;;
23266;SDS011;11802;53.160;8.214;2022-07-29T05:28:11;7.17;;;2.53;;
23266;SDS011;11802;53.160;8.214;2022-07-29T05:30:36;5.73;;;2.43;;
23266;SDS011;11802;53.160;8.214;2022-07-29T05:33:02;3.87;;;2.10;;
23266;SDS011;11802;53.160;8.214;2022-07-29T05:35:27;4.83;;;2.50;;
23266;SDS011;11802;53.160;8.214;2022-07-29T05:37:53;5.53;;;2.70;;
23266;SDS011;11802;53.160;8.214;2022-07-29T05:40:19;6.70;;;2.50;;
23266;SDS011;11802;53.160;8.214;2022-07-29T05:42:45;8.33;;;3.03;;
23266;SDS011;11802;53.160;8.214;2022-07-29T05:45:10;6.93;;;2.63;;
23266;SDS011;11802;53.160;8.214;2022-07-29T05:47:36;6.27;;;2.27;;
23266;SDS011;11802;53.160;8.214;2022-07-29T05:50:01;7.17;;;2.37;;
23266;SDS011;11802;53.160;8.214;2022-07-29T05:52:27;7.00;;;2.70;;
23266;SDS011;11802;53.160;8.214;2022-07-29T05:54:53;4.80;;;2.33;;
23266;SDS011;11802;53.160;8.214;2022-07-29T05:57:19;6.60;;;2.40;;
23266;SDS011;11802;53.160;8.214;2022-07-29T05:59:46;5.50;;;2.40;;
23266;SDS011;11802;53.160;8.214;2022-07-29T06:02:12;6.30;;;2.80;;
23266;SDS011;11802;53.160;8.214;2022-07-29T06:04:38;9.60;;;2.63;;
23266;SDS011;11802;53.160;8.214;2022-07-29T06:07:04;5.00;;;2.37;;
23266;SDS011;11802;53.160;8.214;2022-07-29T06:09:29;4.55;;;2.28;;
23266;SDS011;11802;53.160;8.214;2022-07-29T06:11:55;4.13;;;2.43;;
23266;SDS011;11802;53.160;8.214;2022-07-29T06:14:20;3.85;;;2.10;;
23266;SDS011;11802;53.160;8.214;2022-07-29T06:16:46;6.68;;;2.45;;
23266;SDS011;11802;53.160;8.214;2022-07-29T06:19:11;5.05;;;2.17;;
23266;SDS011;11802;53.160;8.214;2022-07-29T06:21:41;7.55;;;2.40;;
23266;SDS011;11802;53.160;8.214;2022-07-29T06:24:08;4.97;;;2.47;;
23266;SDS011;11802;53.160;8.214;2022-07-29T06:26:35;6.43;;;2.50;;
23266;SDS011;11802;53.160;8.214;2022-07-29T06:29:00;4.38;;;2.50;;
23266;SDS011;11802;53.160;8.214;2022-07-29T06:31:26;4.65;;;2.35;;
23266;SDS011;11802;53.160;8.214;2022-07-29T06:33:51;9.13;;;2.70;;
23266;SDS011;11802;53.160;8.214;2022-07-29T06:36:17;4.57;;;2.50;;
23266;SDS011;11802;53.160;8.214;2022-07-29T06:38:43;6.47;;;2.58;;
23266;SDS011;11802;53.160;8.214;2022-07-29T06:41:09;10.30;;;3.00;;
23266;SDS011;11802;53.160;8.214;2022-07-29T06:43:38;9.25;;;2.88;;
23266;SDS011;11802;53.160;8.214;2022-07-29T06:46:10;7.03;;;3.10;;
23266;SDS011;11802;53.160;8.214;2022-07-29T06:48:40;5.35;;;2.25;;
23266;SDS011;11802;53.160;8.214;2022-07-29T06:51:07;9.55;;;2.78;;
23266;SDS011;11802;53.160;8.214;2022-07-29T06:53:33;8.48;;;2.92;;
23266;SDS011;11802;53.160;8.214;2022-07-29T06:56:00;3.97;;;2.40;;
23266;SDS011;11802;53.160;8.214;2022-07-29T06:58:27;5.75;;;2.60;;
23266;SDS011;11802;53.160;8.214;2022-07-29T07:00:53;7.18;;;2.80;;
23266;SDS011;11802;53.160;8.214;2022-07-29T07:03:18;7.72;;;3.25;;
23266;SDS011;11802;53.160;8.214;2022-07-29T07:05:44;6.72;;;2.47;;
23266;SDS011;11802;53.160;8.214;2022-07-29T07:08:11;6.13;;;2.65;;
23266;SDS011;11802;53.160;8.214;2022-07-29T07:10:37;6.80;;;3.13;;
23266;SDS011;11802;53.160;8.214;2022-07-29T07:13:03;6.13;;;2.58;;
23266;SDS011;11802;53.160;8.214;2022-07-29T07:15:29;7.72;;;2.83;;
23266;SDS011;11802;53.160;8.214;2022-07-29T07:17:55;5.38;;;2.53;;
23266;SDS011;11802;53.160;8.214;2022-07-29T07:20:21;6.97;;;2.70;;
23266;SDS011;11802;53.160;8.214;2022-07-29T07:22:46;7.00;;;2.42;;
23266;SDS011;11802;53.160;8.214;2022-07-29T07:25:12;7.30;;;2.30;;
23266;SDS011;11802;53.160;8.214;2022-07-29T07:27:38;5.20;;;1.95;;
23266;SDS011;11802;53.160;8.214;2022-07-29T07:30:04;4.47;;;2.20;;
23266;SDS011;11802;53.160;8.214;2022-07-29T07:32:31;6.35;;;2.28;;
23266;SDS011;11802;53.160;8.214;2022-07-29T07:34:57;6.28;;;2.33;;
23266;SDS011;11802;53.160;8.214;2022-07-29T07:37:23;5.97;;;2.60;;
23266;SDS011;11802;53.160;8.214;2022-07-29T07:39:49;7.00;;;2.50;;
23266;SDS011;11802;53.160;8.214;2022-07-29T07:42:16;4.20;;;2.42;;
23266;SDS011;11802;53.160;8.214;2022-07-29T07:44:42;7.38;;;3.00;;
23266;SDS011;11802;53.160;8.214;2022-07-29T07:47:07;4.38;;;1.90;;
23266;SDS011;11802;53.160;8.214;2022-07-29T07:49:33;5.22;;;1.90;;
23266;SDS011;11802;53.160;8.214;2022-07-29T07:51:58;4.78;;;1.98;;
23266;SDS011;11802;53.160;8.214;2022-07-29T07:54:24;6.35;;;2.25;;
23266;SDS011;11802;53.160;8.214;2022-07-29T07:56:49;3.75;;;2.60;;
23266;SDS011;11802;53.160;8.214;2022-07-29T07:59:15;5.20;;;2.20;;
23266;SDS011;11802;53.160;8.214;2022-07-29T08:01:41;5.85;;;2.28;;
23266;SDS011;11802;53.160;8.214;2022-07-29T08:04:07;5.50;;;2.25;;
23266;SDS011;11802;53.160;8.214;2022-07-29T08:06:33;4.25;;;2.00;;
23266;SDS011;11802;53.160;8.214;2022-07-29T08:09:03;8.55;;;2.38;;
23266;SDS011;11802;53.160;8.214;2022-07-29T08:11:29;3.85;;;2.05;;
23266;SDS011;11802;53.160;8.214;2022-07-29T08:13:55;8.80;;;2.08;;
23266;SDS011;11802;53.160;8.214;2022-07-29T08:16:20;4.53;;;1.83;;
23266;SDS011;11802;53.160;8.214;2022-07-29T08:18:46;9.00;;;2.45;;
23266;SDS011;11802;53.160;8.214;2022-07-29T08:21:13;4.55;;;1.88;;
23266;SDS011;11802;53.160;8.214;2022-07-29T08:23:39;5.50;;;2.10;;
23266;SDS011;11802;53.160;8.214;2022-07-29T08:26:10;4.38;;;1.85;;
23266;SDS011;11802;53.160;8.214;2022-07-29T08:28:37;4.30;;;2.10;;
23266;SDS011;11802;53.160;8.214;2022-07-29T08:31:04;8.35;;;2.33;;
23266;SDS011;11802;53.160;8.214;2022-07-29T08:33:30;4.60;;;2.20;;
23266;SDS011;11802;53.160;8.214;2022-07-29T08:35:56;5.90;;;2.47;;
23266;SDS011;11802;53.160;8.214;2022-07-29T08:38:21;9.35;;;2.05;;
23266;SDS011;11802;53.160;8.214;2022-07-29T08:40:47;3.35;;;2.25;;
23266;SDS011;11802;53.160;8.214;2022-07-29T08:43:12;5.68;;;2.22;;
23266;SDS011;11802;53.160;8.214;2022-07-29T08:45:45;7.90;;;2.50;;
23266;SDS011;11802;53.160;8.214;2022-07-29T08:48:12;5.82;;;2.25;;
23266;SDS011;11802;53.160;8.214;2022-07-29T08:50:39;10.27;;;2.83;;
23266;SDS011;11802;53.160;8.214;2022-07-29T08:53:07;5.75;;;1.70;;
23266;SDS011;11802;53.160;8.214;2022-07-29T08:55:36;7.55;;;2.10;;
23266;SDS011;11802;53.160;8.214;2022-07-29T08:58:05;4.60;;;2.28;;
23266;SDS011;11802;53.160;8.214;2022-07-29T09:00:32;6.75;;;2.72;;
23266;SDS011;11802;53.160;8.214;2022-07-29T09:03:00;5.68;;;2.45;;
23266;SDS011;11802;53.160;8.214;2022-07-29T09:05:26;5.72;;;2.47;;
23266;SDS011;11802;53.160;8.214;2022-07-29T09:07:53;4.65;;;2.20;;
23266;SDS011;11802;53.160;8.214;2022-07-29T09:10:18;7.57;;;2.63;;
23266;SDS011;11802;53.160;8.214;2022-07-29T09:12:44;6.65;;;2.60;;
23266;SDS011;11802;53.160;8.214;2022-07-29T09:15:10;6.60;;;2.70;;
23266;SDS011;11802;53.160;8.214;2022-07-29T09:17:39;5.60;;;2.58;;
23266;SDS011;11802;53.160;8.214;2022-07-29T09:20:13;7.32;;;2.45;;
23266;SDS011;11802;53.160;8.214;2022-07-29T09:22:41;9.10;;;2.75;;
23266;SDS011;11802;53.160;8.214;2022-07-29T09:25:06;5.10;;;2.08;;
23266;SDS011;11802;53.160;8.214;2022-07-29T09:27:32;5.60;;;2.10;;
23266;SDS011;11802;53.160;8.214;2022-07-29T09:30:05;4.35;;;2.10;;
23266;SDS011;11802;53.160;8.214;2022-07-29T09:32:53;8.50;;;2.40;;
23266;SDS011;11802;53.160;8.214;2022-07-29T09:35:24;3.95;;;1.83;;
23266;SDS011;11802;53.160;8.214;2022-07-29T09:37:51;7.50;;;2.38;;
23266;SDS011;11802;53.160;8.214;2022-07-29T09:40:17;6.78;;;2.03;;
23266;SDS011;11802;53.160;8.214;2022-07-29T09:42:48;6.65;;;2.50;;
23266;SDS011;11802;53.160;8.214;2022-07-29T09:45:27;5.90;;;2.33;;
23266;SDS011;11802;53.160;8.214;2022-07-29T09:47:54;12.70;;;2.90;;
23266;SDS011;11802;53.160;8.214;2022-07-29T09:50:22;7.93;;;2.33;;
23266;SDS011;11802;53.160;8.214;2022-07-29T09:52:51;6.63;;;2.20;;
23266;SDS011;11802;53.160;8.214;2022-07-29T09:55:18;3.88;;;2.25;;
23266;SDS011;11802;53.160;8.214;2022-07-29T09:57:45;5.13;;;2.25;;
23266;SDS011;11802;53.160;8.214;2022-07-29T10:00:18;6.15;;;2.60;;
23266;SDS011;11802;53.160;8.214;2022-07-29T10:02:46;8.63;;;2.53;;
23266;SDS011;11802;53.160;8.214;2022-07-29T10:05:22;4.10;;;2.10;;
23266;SDS011;11802;53.160;8.214;2022-07-29T10:07:51;5.93;;;2.42;;
23266;SDS011;11802;53.160;8.214;2022-07-29T10:10:22;5.32;;;2.22;;
23266;SDS011;11802;53.160;8.214;2022-07-29T10:12:56;7.80;;;2.67;;
23266;SDS011;11802;53.160;8.214;2022-07-29T10:15:24;6.25;;;2.20;;
23266;SDS011;11802;53.160;8.214;2022-07-29T10:17:52;5.90;;;1.90;;
23266;SDS011;11802;53.160;8.214;2022-07-29T10:20:19;6.10;;;2.00;;
23266;SDS011;11802;53.160;8.214;2022-07-29T10:22:46;7.30;;;1.95;;
23266;SDS011;11802;53.160;8.214;2022-07-29T10:25:12;5.00;;;1.77;;
23266;SDS011;11802;53.160;8.214;2022-07-29T10:27:39;6.70;;;1.90;;
23266;SDS011;11802;53.160;8.214;2022-07-29T10:30:05;5.75;;;2.10;;
23266;SDS011;11802;53.160;8.214;2022-07-29T10:43:41;7.63;;;1.67;;
23266;SDS011;11802;53.160;8.214;2022-07-29T10:46:09;6.15;;;1.88;;
23266;SDS011;11802;53.160;8.214;2022-07-29T10:54:36;6.10;;;1.90;;
23266;SDS011;11802;53.160;8.214;2022-07-29T10:59:43;4.72;;;1.90;;
23266;SDS011;11802;53.160;8.214;2022-07-29T11:07:23;2.78;;;1.45;;
23266;SDS011;11802;53.160;8.214;2022-07-29T11:10:19;3.50;;;1.70;;
23266;SDS011;11802;53.160;8.214;2022-07-29T11:12:46;4.47;;;1.80;;
23266;SDS011;11802;53.160;8.214;2022-07-29T11:15:13;3.78;;;1.50;;
23266;SDS011;11802;53.160;8.214;2022-07-29T11:20:31;3.60;;;1.60;;
23266;SDS011;11802;53.160;8.214;2022-07-29T11:25:44;2.95;;;1.50;;
23266;SDS011;11802;53.160;8.214;2022-07-29T11:28:13;7.30;;;1.30;;
23266;SDS011;11802;53.160;8.214;2022-07-29T11:30:51;3.85;;;1.48;;
23266;SDS011;11802;53.160;8.214;2022-07-29T11:33:28;5.10;;;1.60;;
23266;SDS011;11802;53.160;8.214;2022-07-29T11:36:13;5.68;;;1.58;;
23266;SDS011;11802;53.160;8.214;2022-07-29T11:38:40;4.60;;;1.55;;
23266;SDS011;11802;53.160;8.214;2022-07-29T11:41:27;4.35;;;1.40;;
23266;SDS011;11802;53.160;8.214;2022-07-29T11:43:58;3.42;;;1.48;;
23266;SDS011;11802;53.160;8.214;2022-07-29T11:49:20;3.85;;;1.40;;
23266;SDS011;11802;53.160;8.214;2022-07-29T11:51:50;4.47;;;1.75;;
23266;SDS011;11802;53.160;8.214;2022-07-29T11:54:16;3.90;;;1.70;;
23266;SDS011;11802;53.160;8.214;2022-07-29T11:56:48;5.72;;;1.70;;
23266;SDS011;11802;53.160;8.214;2022-07-29T11:59:15;6.85;;;1.58;;
23266;SDS011;11802;53.160;8.214;2022-07-29T12:04:22;6.53;;;1.60;;
23266;SDS011;11802;53.160;8.214;2022-07-29T12:06:55;4.45;;;1.60;;
23266;SDS011;11802;53.160;8.214;2022-07-29T12:09:22;5.03;;;1.98;;
23266;SDS011;11802;53.160;8.214;2022-07-29T12:11:48;4.30;;;1.63;;
23266;SDS011;11802;53.160;8.214;2022-07-29T12:14:39;5.43;;;1.80;;
23266;SDS011;11802;53.160;8.214;2022-07-29T12:17:24;4.57;;;1.98;;
23266;SDS011;11802;53.160;8.214;2022-07-29T12:19:57;4.80;;;1.52;;
23266;SDS011;11802;53.160;8.214;2022-07-29T12:22:25;4.85;;;1.83;;
23266;SDS011;11802;53.160;8.214;2022-07-29T12:24:54;4.47;;;1.58;;
23266;SDS011;11802;53.160;8.214;2022-07-29T12:27:20;6.68;;;2.00;;
23266;SDS011;11802;53.160;8.214;2022-07-29T12:29:55;3.78;;;1.58;;
23266;SDS011;11802;53.160;8.214;2022-07-29T12:32:35;4.30;;;1.50;;
23266;SDS011;11802;53.160;8.214;2022-07-29T12:35:03;3.67;;;1.70;;
23266;SDS011;11802;53.160;8.214;2022-07-29T12:37:38;5.05;;;1.85;;
23266;SDS011;11802;53.160;8.214;2022-07-29T12:40:07;2.85;;;1.60;;
23266;SDS011;11802;53.160;8.214;2022-07-29T12:42:34;4.95;;;1.80;;
23266;SDS011;11802;53.160;8.214;2022-07-29T12:45:00;6.35;;;1.80;;
23266;SDS011;11802;53.160;8.214;2022-07-29T12:47:26;5.78;;;1.80;;
23266;SDS011;11802;53.160;8.214;2022-07-29T12:50:07;3.53;;;1.52;;
23266;SDS011;11802;53.160;8.214;2022-07-29T12:52:39;5.68;;;2.10;;
23266;SDS011;11802;53.160;8.214;2022-07-29T12:55:05;6.63;;;2.28;;
23266;SDS011;11802;53.160;8.214;2022-07-29T12:57:31;6.22;;;2.10;;
23266;SDS011;11802;53.160;8.214;2022-07-29T13:00:14;4.57;;;1.80;;
23266;SDS011;11802;53.160;8.214;2022-07-29T13:02:41;4.22;;;1.75;;
23266;SDS011;11802;53.160;8.214;2022-07-29T13:05:08;3.67;;;1.80;;
23266;SDS011;11802;53.160;8.214;2022-07-29T13:07:36;10.57;;;2.17;;
23266;SDS011;11802;53.160;8.214;2022-07-29T13:12:34;5.75;;;1.60;;
23266;SDS011;11802;53.160;8.214;2022-07-29T13:15:01;4.82;;;1.50;;
23266;SDS011;11802;53.160;8.214;2022-07-29T13:17:41;4.60;;;1.48;;
23266;SDS011;11802;53.160;8.214;2022-07-29T13:20:09;6.53;;;1.63;;
23266;SDS011;11802;53.160;8.214;2022-07-29T13:22:40;4.75;;;1.92;;
23266;SDS011;11802;53.160;8.214;2022-07-29T13:25:07;3.75;;;1.67;;
23266;SDS011;11802;53.160;8.214;2022-07-29T13:27:34;3.70;;;1.52;;
23266;SDS011;11802;53.160;8.214;2022-07-29T13:30:07;5.78;;;1.73;;
23266;SDS011;11802;53.160;8.214;2022-07-29T13:32:34;5.32;;;1.60;;
23266;SDS011;11802;53.160;8.214;2022-07-29T13:35:02;5.47;;;1.55;;
23266;SDS011;11802;53.160;8.214;2022-07-29T13:37:30;4.22;;;1.60;;
23266;SDS011;11802;53.160;8.214;2022-07-29T13:39:57;2.83;;;1.42;;
23266;SDS011;11802;53.160;8.214;2022-07-29T13:42:24;3.88;;;1.58;;
23266;SDS011;11802;53.160;8.214;2022-07-29T13:44:50;5.40;;;1.60;;
23266;SDS011;11802;53.160;8.214;2022-07-29T13:47:16;6.07;;;1.80;;
23266;SDS011;11802;53.160;8.214;2022-07-29T13:49:44;5.07;;;1.60;;
23266;SDS011;11802;53.160;8.214;2022-07-29T13:52:10;4.05;;;1.48;;
23266;SDS011;11802;53.160;8.214;2022-07-29T13:54:35;3.50;;;1.50;;
23266;SDS011;11802;53.160;8.214;2022-07-29T13:57:04;3.75;;;1.55;;
23266;SDS011;11802;53.160;8.214;2022-07-29T13:59:30;5.00;;;1.40;;
23266;SDS011;11802;53.160;8.214;2022-07-29T14:01:56;4.05;;;1.27;;
23266;SDS011;11802;53.160;8.214;2022-07-29T14:04:21;3.60;;;1.60;;
23266;SDS011;11802;53.160;8.214;2022-07-29T14:06:48;3.22;;;1.40;;
23266;SDS011;11802;53.160;8.214;2022-07-29T14:09:14;4.07;;;1.38;;
23266;SDS011;11802;53.160;8.214;2022-07-29T14:11:40;5.32;;;1.63;;
23266;SDS011;11802;53.160;8.214;2022-07-29T14:14:06;3.00;;;1.60;;
23266;SDS011;11802;53.160;8.214;2022-07-29T14:16:31;3.40;;;1.50;;
23266;SDS011;11802;53.160;8.214;2022-07-29T14:18:57;3.30;;;1.70;;
23266;SDS011;11802;53.160;8.214;2022-07-29T14:21:23;7.45;;;1.90;;
23266;SDS011;11802;53.160;8.214;2022-07-29T14:23:48;3.05;;;1.58;;
23266;SDS011;11802;53.160;8.214;2022-07-29T14:26:17;7.70;;;2.10;;
23266;SDS011;11802;53.160;8.214;2022-07-29T14:28:43;4.95;;;1.80;;
23266;SDS011;11802;53.160;8.214;2022-07-29T14:31:09;8.68;;;2.35;;
23266;SDS011;11802;53.160;8.214;2022-07-29T14:33:35;6.15;;;1.83;;
23266;SDS011;11802;53.160;8.214;2022-07-29T14:36:00;5.63;;;2.25;;
23266;SDS011;11802;53.160;8.214;2022-07-29T14:38:26;5.53;;;1.80;;
23266;SDS011;11802;53.160;8.214;2022-07-29T14:40:51;5.65;;;2.08;;
23266;SDS011;11802;53.160;8.214;2022-07-29T14:43:17;8.75;;;2.17;;
23266;SDS011;11802;53.160;8.214;2022-07-29T14:45:42;6.05;;;2.10;;
23266;SDS011;11802;53.160;8.214;2022-07-29T14:48:08;5.72;;;2.03;;
23266;SDS011;11802;53.160;8.214;2022-07-29T14:50:33;6.10;;;1.80;;
23266;SDS011;11802;53.160;8.214;2022-07-29T14:52:59;5.57;;;2.00;;
23266;SDS011;11802;53.160;8.214;2022-07-29T14:55:25;7.97;;;1.77;;
23266;SDS011;11802;53.160;8.214;2022-07-29T14:57:52;9.07;;;2.38;;
23266;SDS011;11802;53.160;8.214;2022-07-29T15:00:18;3.95;;;1.80;;
23266;SDS011;11802;53.160;8.214;2022-07-29T15:02:44;3.92;;;1.92;;
23266;SDS011;11802;53.160;8.214;2022-07-29T15:05:09;4.22;;;1.75;;
23266;SDS011;11802;53.160;8.214;2022-07-29T15:07:35;7.53;;;2.40;;
23266;SDS011;11802;53.160;8.214;2022-07-29T15:10:00;8.52;;;2.03;;
23266;SDS011;11802;53.160;8.214;2022-07-29T15:12:27;5.93;;;1.63;;
23266;SDS011;11802;53.160;8.214;2022-07-29T15:14:52;4.45;;;1.80;;
23266;SDS011;11802;53.160;8.214;2022-07-29T15:17:18;4.97;;;2.05;;
23266;SDS011;11802;53.160;8.214;2022-07-29T15:19:45;5.95;;;2.05;;
23266;SDS011;11802;53.160;8.214;2022-07-29T15:22:10;5.90;;;1.92;;
23266;SDS011;11802;53.160;8.214;2022-07-29T15:24:36;8.93;;;2.25;;
23266;SDS011;11802;53.160;8.214;2022-07-29T15:27:01;7.63;;;2.30;;
23266;SDS011;11802;53.160;8.214;2022-07-29T15:29:27;3.15;;;2.08;;
23266;SDS011;11802;53.160;8.214;2022-07-29T15:31:52;6.53;;;2.35;;
23266;SDS011;11802;53.160;8.214;2022-07-29T15:34:18;7.15;;;2.60;;
23266;SDS011;11802;53.160;8.214;2022-07-29T15:36:45;5.30;;;2.42;;